Uvalde Research's Hourly Summary for Tuesday, May 15, 2018
Hour Temp
(f)
RH
(%)
Solar Rad.
(MJ/m2)
Rainfall
(in)
Wind
(mph)
5/15/2018 12:00 AM 77 73 0 0 3.95
5/15/2018 1:00 AM 76 77 0 0 2.58
5/15/2018 2:00 AM 74 82 0 0 2.66
5/15/2018 3:00 AM 73 86 0 0 1.73
5/15/2018 4:00 AM 72 87 0 0 1.43
5/15/2018 5:00 AM 72 87 0 0 2.45
5/15/2018 6:00 AM 72 89 0 0 2.38
5/15/2018 7:00 AM 72 91 0.1 0 2.66
5/15/2018 8:00 AM 72 90 0.23 0 2.35
5/15/2018 9:00 AM 74 87 0.69 0 2.44
5/15/2018 10:00 AM 76 82 1.18 0 2.63
5/15/2018 11:00 AM 79 75 1.92 0 2.17
5/15/2018 12:00 PM 82 69 2.53 0 2.88
5/15/2018 1:00 PM 85 63 3.02 0 3.27
5/15/2018 2:00 PM 88 55 3 0 3.29
5/15/2018 3:00 PM 89 52 2.12 0 3.33
5/15/2018 4:00 PM 90 49 1.86 0 3.26
5/15/2018 5:00 PM 90 48 1.41 0 2.85
5/15/2018 6:00 PM 90 47 0.94 0 3.46
5/15/2018 7:00 PM 89 46 0.32 0 3.09
5/15/2018 8:00 PM 87 51 0.02 0 2.13
5/15/2018 9:00 PM 84 57 0 0 2.4
5/15/2018 10:00 PM 83 55 0 0 3.46
5/15/2018 11:00 PM 74 73 0 0 6.4
Data Summary 80 69 19.34 0.00 2.89